KROC/ROC METAR and TAF weather

Enter ICAO airport designator
Station Type Date Time Source
KROC METAR 2020/04/03 06:54 UTC NOAA

KROC 030654Z 34007KT 10SM BKN250 04/M02 A2989 RMK AO2 SLP128 T00441022 $


Station Type Date Time Source
KROC Decoded METAR 2020/04/03 06:54 UTC NOAA

GREATER ROCHESTER INTERNATIONAL , NY, United States (KROC) 43-07N 077-41W 178M
Apr 03, 2020 - 02:54 AM EDT / 2020.04.03 0654 UTC
Wind: from the NNW (340 degrees) at 8 MPH (7 KT):0
Visibility: 10 mile(s):0
Sky conditions: mostly cloudy
Temperature: 39.9 F (4.4 C)
Dew Point: 28.0 F (-2.2 C)
Relative Humidity: 62%
Pressure (altimeter): 29.89 in. Hg (1012 hPa)
ob: KROC 030654Z 34007KT 10SM BKN250 04/M02 A2989 RMK AO2 SLP128 T00441022
cycle: 7

Station Type Date Time Source
KROC TAF 2020/04/03 06:22 UTC NOAA

TAF KROC 030520Z 0306/0406 32009KT P6SM SCT250
FM031100 30010KT P6SM BKN015
FM031300 32013KT P6SM VCSH OVC007
FM032000 33009KT 4SM BR VCSH OVC007

Example: see airport list